createdAt,value
2022-10-17T04:27:07.676Z,101771.44
2022-10-17T04:32:33.251Z,101772.13
2022-10-17T04:38:02.560Z,101769.34
2022-10-17T04:43:23.820Z,101771.91
2022-10-17T04:48:46.002Z,101779.63
2022-10-17T04:54:06.906Z,101770.91
2022-10-17T04:59:29.127Z,101770.13
2022-10-17T05:05:05.519Z,101776.16
2022-10-17T05:10:26.460Z,101776.94
2022-10-17T05:15:48.871Z,101771.91
2022-10-17T05:21:10.224Z,101774.59
2022-10-17T05:26:32.481Z,101769.22
2022-10-17T05:31:53.494Z,101770.22
2022-10-17T05:37:14.778Z,101770.91
2022-10-17T05:48:06.635Z,101768.06
2022-10-17T05:53:31.658Z,101773.13
2022-10-17T05:59:00.726Z,101778.56
2022-10-17T06:04:49.282Z,101783.16
2022-10-17T06:10:15.058Z,101790.38
2022-10-17T06:15:36.361Z,101798.31
2022-10-17T06:21:12.144Z,101793.78
2022-10-17T06:26:38.401Z,101806.31
2022-10-17T06:32:01.270Z,101824.56
2022-10-17T06:37:22.492Z,101814.09
2022-10-17T06:42:43.878Z,101816.94
2022-10-17T06:48:18.655Z,101828.56
2022-10-17T06:54:03.167Z,101833.66
2022-10-17T06:59:41.901Z,101831.81
2022-10-17T07:05:06.554Z,101838.56
2022-10-17T07:10:28.977Z,101837.56
2022-10-17T07:15:49.754Z,101826.31
2022-10-17T07:21:11.634Z,101828.88
2022-10-17T07:26:34.641Z,101820.25
2022-10-17T07:31:55.985Z,101819.22
2022-10-17T07:37:17.248Z,101830.09
2022-10-17T07:42:44.498Z,101829.44
2022-10-17T07:48:06.535Z,101828.09
2022-10-17T07:53:27.750Z,101827.84
2022-10-17T07:58:48.736Z,101823.47
2022-10-17T08:04:09.441Z,101829.13
2022-10-17T08:09:30.280Z,101844.50
2022-10-17T08:14:51.086Z,101835.38
2022-10-17T08:20:12.442Z,101829.78
2022-10-17T08:25:33.463Z,101832.19
2022-10-17T08:31:02.479Z,101833.91
2022-10-17T08:36:23.494Z,101836.78
2022-10-17T08:41:52.227Z,101834.44
2022-10-17T08:47:19.722Z,101838.06
2022-10-17T08:52:49.383Z,101838.56
2022-10-17T08:58:15.415Z,101841.19
2022-10-17T09:04:27.001Z,101838.13
2022-10-17T09:09:56.707Z,101826.72
2022-10-17T09:15:51.235Z,101823.81
2022-10-17T09:21:28.916Z,101833.47
2022-10-17T09:26:51.264Z,101830.22
2022-10-17T09:32:17.361Z,101841.38
2022-10-17T09:37:38.370Z,101846.59
2022-10-17T09:43:01.598Z,101830.78
2022-10-17T09:48:35.997Z,101817.63
2022-10-17T09:54:01.711Z,101818.59
2022-10-17T09:59:56.411Z,101813.94
2022-10-17T10:05:21.752Z,101806.31
2022-10-17T10:10:44.174Z,101809.91
2022-10-17T10:16:31.533Z,101810.84
2022-10-17T10:21:58.232Z,101804.75
2022-10-17T10:27:29.290Z,101798.63
2022-10-17T10:32:50.246Z,101797.50
2022-10-17T10:38:17.479Z,101808.53
2022-10-17T10:43:43.733Z,101808.50
2022-10-17T10:49:24.624Z,101809.50
2022-10-17T10:55:02.272Z,101812.59
2022-10-17T11:00:26.539Z,101794.38
2022-10-17T11:05:56.259Z,101792.09
2022-10-17T11:11:33.562Z,101779.81
2022-10-17T11:17:18.186Z,101796.50
2022-10-17T11:22:44.353Z,101794.25
2022-10-17T11:28:14.373Z,101788.91
2022-10-17T11:33:50.580Z,101783.38
2022-10-17T11:39:29.677Z,101769.25
2022-10-17T11:44:54.509Z,101759.56
2022-10-17T11:56:26.093Z,101758.28
2022-10-17T12:02:03.881Z,101753.16
2022-10-17T12:07:40.603Z,101731.91
2022-10-17T12:13:29.829Z,101743.84
2022-10-17T12:19:10.801Z,101733.78
2022-10-17T12:24:44.024Z,101737.91
2022-10-17T12:30:07.098Z,101724.31
2022-10-17T12:35:30.202Z,101722.00
2022-10-17T12:40:57.046Z,101728.44
2022-10-17T12:47:00.310Z,101719.66
2022-10-17T12:52:31.507Z,101703.47
2022-10-17T12:57:52.465Z,101705.16
2022-10-17T13:03:17.575Z,101710.81
2022-10-17T13:08:44.783Z,101711.63
2022-10-17T13:14:12.915Z,101699.69
2022-10-17T13:19:45.460Z,101706.09
2022-10-17T13:25:16.185Z,101691.88
2022-10-17T13:30:37.340Z,101683.63
2022-10-17T13:36:00.790Z,101686.06
2022-10-17T13:41:37.077Z,101686.91
2022-10-17T13:46:58.395Z,101682.28
2022-10-17T13:52:22.256Z,101673.56
2022-10-17T13:57:43.098Z,101677.69
2022-10-17T14:03:04.683Z,101672.00
2022-10-17T14:08:25.957Z,101675.91
2022-10-17T14:13:50.701Z,101670.34
2022-10-17T14:19:33.215Z,101689.38
2022-10-17T14:24:55.763Z,101683.03
2022-10-17T14:30:58.339Z,101694.91
2022-10-17T14:36:21.388Z,101699.75
2022-10-17T14:41:45.573Z,101700.44
2022-10-17T14:47:41.792Z,101708.06
2022-10-17T14:53:05.276Z,101710.81
2022-10-17T14:58:29.175Z,101715.59
2022-10-17T15:03:50.245Z,101707.66
2022-10-17T15:09:11.613Z,101709.78
2022-10-17T15:14:32.552Z,101706.59
2022-10-17T15:19:54.545Z,101709.66
2022-10-17T15:25:15.421Z,101727.66
2022-10-17T15:30:37.158Z,101725.59
2022-10-17T15:41:26.191Z,101733.53
2022-10-17T15:46:47.199Z,101734.72
2022-10-17T15:52:08.944Z,101736.97
2022-10-17T15:57:34.184Z,101738.25
2022-10-17T16:02:55.012Z,101748.34
2022-10-17T16:08:15.796Z,101741.84
2022-10-17T16:13:37.705Z,101749.28
2022-10-17T16:18:59.311Z,101744.59
2022-10-17T16:24:19.979Z,101747.75
2022-10-17T16:29:40.845Z,101748.16
2022-10-17T16:35:01.633Z,101749.66
2022-10-17T16:40:22.912Z,101753.69
2022-10-17T16:45:43.817Z,101759.41
2022-10-17T16:51:04.599Z,101761.72
2022-10-17T16:56:29.673Z,101758.81
2022-10-17T17:01:50.973Z,101766.41
2022-10-17T17:07:12.223Z,101765.16
2022-10-17T17:12:36.934Z,101762.28
2022-10-17T17:18:00.323Z,101762.09
2022-10-17T17:23:23.432Z,101767.06
2022-10-17T17:28:44.737Z,101765.16
2022-10-17T17:34:06.008Z,101760.47
2022-10-17T17:39:27.130Z,101768.84
2022-10-17T17:44:49.230Z,101776.47
2022-10-17T17:50:10.452Z,101777.13
2022-10-17T17:55:31.105Z,101778.47
2022-10-17T18:00:52.193Z,101789.50
2022-10-17T18:06:13.483Z,101790.91
2022-10-17T18:11:35.335Z,101807.88
2022-10-17T18:16:56.402Z,101804.84
2022-10-17T18:22:17.283Z,101818.06
2022-10-17T18:27:38.308Z,101825.34
2022-10-17T18:32:58.980Z,101829.28
2022-10-17T18:38:19.868Z,101849.53
2022-10-17T18:43:42.880Z,101840.69
2022-10-17T18:49:04.194Z,101837.06
2022-10-17T18:54:24.923Z,101834.13
2022-10-17T18:59:45.822Z,101839.66
2022-10-17T19:05:06.889Z,101842.19
2022-10-17T19:10:28.054Z,101847.13
2022-10-17T19:15:48.985Z,101843.31
2022-10-17T19:21:11.974Z,101853.63
2022-10-17T19:26:35.277Z,101853.50
2022-10-17T19:37:22.030Z,101856.09
2022-10-17T19:42:42.817Z,101866.19
2022-10-17T19:48:03.897Z,101866.88
2022-10-17T19:53:25.276Z,101863.06
2022-10-17T19:58:47.650Z,101872.34
2022-10-17T20:04:10.981Z,101888.34
2022-10-17T20:09:31.854Z,101884.63
2022-10-17T20:14:52.579Z,101889.34
2022-10-17T20:20:13.841Z,101889.81
2022-10-17T20:25:38.109Z,101896.53
2022-10-17T20:30:58.914Z,101893.94
2022-10-17T20:36:23.274Z,101904.38
2022-10-17T20:41:45.150Z,101896.69
2022-10-17T20:47:11.897Z,101903.50
2022-10-17T20:52:36.978Z,101911.69
2022-10-17T20:57:58.531Z,101924.16
2022-10-17T21:03:19.605Z,101924.09
2022-10-17T21:08:40.678Z,101924.81
2022-10-17T21:14:05.219Z,101920.88
2022-10-17T21:19:26.351Z,101928.41
2022-10-17T21:24:47.407Z,101928.75
2022-10-17T21:30:08.987Z,101935.22
2022-10-17T21:35:30.204Z,101943.66
2022-10-17T21:40:52.591Z,101938.59
2022-10-17T21:46:18.185Z,101948.78
2022-10-17T21:51:39.427Z,101953.22
2022-10-17T21:57:00.862Z,101960.19
